sensor_id;sensor_type;location;lat;lon;timestamp;P1;durP1;ratioP1;P2;durP2;ratioP2
50350;SDS011;36250;48.740;22.174;2023-01-20T00:02:21;9.95;;;8.88;;
50350;SDS011;36250;48.740;22.174;2023-01-20T00:04:47;15.18;;;12.35;;
50350;SDS011;36250;48.740;22.174;2023-01-20T00:07:13;13.75;;;11.80;;
50350;SDS011;36250;48.740;22.174;2023-01-20T00:09:38;14.75;;;12.05;;
50350;SDS011;36250;48.740;22.174;2023-01-20T00:12:03;16.85;;;13.55;;
50350;SDS011;36250;48.740;22.174;2023-01-20T00:14:29;18.33;;;14.60;;
50350;SDS011;36250;48.740;22.174;2023-01-20T00:16:54;15.90;;;12.38;;
50350;SDS011;36250;48.740;22.174;2023-01-20T00:19:21;14.77;;;12.48;;
50350;SDS011;36250;48.740;22.174;2023-01-20T00:21:47;25.25;;;18.48;;
50350;SDS011;36250;48.740;22.174;2023-01-20T00:24:12;28.90;;;21.15;;
50350;SDS011;36250;48.740;22.174;2023-01-20T00:26:38;18.33;;;12.90;;
50350;SDS011;36250;48.740;22.174;2023-01-20T00:29:04;17.60;;;13.05;;
50350;SDS011;36250;48.740;22.174;2023-01-20T00:31:30;20.60;;;15.60;;
50350;SDS011;36250;48.740;22.174;2023-01-20T00:33:57;13.85;;;11.35;;
50350;SDS011;36250;48.740;22.174;2023-01-20T00:36:24;12.48;;;10.32;;
50350;SDS011;36250;48.740;22.174;2023-01-20T00:38:50;13.32;;;10.95;;
50350;SDS011;36250;48.740;22.174;2023-01-20T00:41:16;16.30;;;11.60;;
50350;SDS011;36250;48.740;22.174;2023-01-20T00:43:42;20.10;;;14.90;;
50350;SDS011;36250;48.740;22.174;2023-01-20T00:46:08;23.25;;;15.63;;
50350;SDS011;36250;48.740;22.174;2023-01-20T00:48:34;29.42;;;18.25;;
50350;SDS011;36250;48.740;22.174;2023-01-20T00:51:00;31.15;;;20.58;;
50350;SDS011;36250;48.740;22.174;2023-01-20T00:53:26;18.55;;;13.73;;
50350;SDS011;36250;48.740;22.174;2023-01-20T00:55:52;21.33;;;14.77;;
50350;SDS011;36250;48.740;22.174;2023-01-20T00:58:17;34.10;;;22.10;;
50350;SDS011;36250;48.740;22.174;2023-01-20T01:00:45;44.05;;;25.58;;
50350;SDS011;36250;48.740;22.174;2023-01-20T01:03:11;28.02;;;16.05;;
50350;SDS011;36250;48.740;22.174;2023-01-20T01:05:36;17.38;;;10.02;;
50350;SDS011;36250;48.740;22.174;2023-01-20T01:08:01;44.72;;;25.55;;
50350;SDS011;36250;48.740;22.174;2023-01-20T01:10:27;24.80;;;16.25;;
50350;SDS011;36250;48.740;22.174;2023-01-20T01:12:52;8.18;;;6.57;;
50350;SDS011;36250;48.740;22.174;2023-01-20T01:15:17;8.93;;;6.88;;
50350;SDS011;36250;48.740;22.174;2023-01-20T01:17:43;8.27;;;7.32;;
50350;SDS011;36250;48.740;22.174;2023-01-20T01:20:09;8.85;;;7.22;;
50350;SDS011;36250;48.740;22.174;2023-01-20T01:22:36;7.85;;;6.82;;
50350;SDS011;36250;48.740;22.174;2023-01-20T01:25:01;7.85;;;7.05;;
50350;SDS011;36250;48.740;22.174;2023-01-20T01:27:27;9.25;;;8.30;;
50350;SDS011;36250;48.740;22.174;2023-01-20T01:29:52;8.73;;;7.40;;
50350;SDS011;36250;48.740;22.174;2023-01-20T01:32:18;9.23;;;7.47;;
50350;SDS011;36250;48.740;22.174;2023-01-20T01:34:44;9.35;;;7.07;;
50350;SDS011;36250;48.740;22.174;2023-01-20T01:37:09;6.60;;;5.88;;
50350;SDS011;36250;48.740;22.174;2023-01-20T01:39:35;7.80;;;6.88;;
50350;SDS011;36250;48.740;22.174;2023-01-20T01:42:00;6.18;;;5.57;;
50350;SDS011;36250;48.740;22.174;2023-01-20T01:44:25;6.78;;;5.60;;
50350;SDS011;36250;48.740;22.174;2023-01-20T01:46:52;6.80;;;6.05;;
50350;SDS011;36250;48.740;22.174;2023-01-20T01:49:28;21.15;;;13.38;;
50350;SDS011;36250;48.740;22.174;2023-01-20T01:52:04;52.33;;;25.13;;
50350;SDS011;36250;48.740;22.174;2023-01-20T01:54:35;7.88;;;6.05;;
50350;SDS011;36250;48.740;22.174;2023-01-20T01:57:06;6.45;;;5.65;;
50350;SDS011;36250;48.740;22.174;2023-01-20T01:59:33;5.95;;;5.28;;
50350;SDS011;36250;48.740;22.174;2023-01-20T02:01:59;5.28;;;4.70;;
50350;SDS011;36250;48.740;22.174;2023-01-20T02:04:25;8.88;;;4.38;;
50350;SDS011;36250;48.740;22.174;2023-01-20T02:06:55;5.97;;;4.78;;
50350;SDS011;36250;48.740;22.174;2023-01-20T02:09:24;5.00;;;4.50;;
50350;SDS011;36250;48.740;22.174;2023-01-20T02:11:52;4.60;;;4.20;;
50350;SDS011;36250;48.740;22.174;2023-01-20T02:14:22;5.22;;;4.47;;
50350;SDS011;36250;48.740;22.174;2023-01-20T02:19:53;4.03;;;3.63;;
50350;SDS011;36250;48.740;22.174;2023-01-20T02:26:05;9.70;;;6.50;;
50350;SDS011;36250;48.740;22.174;2023-01-20T02:34:18;55.67;;;22.02;;
50350;SDS011;36250;48.740;22.174;2023-01-20T02:36:53;23.40;;;11.68;;
50350;SDS011;36250;48.740;22.174;2023-01-20T02:39:24;18.50;;;10.30;;
50350;SDS011;36250;48.740;22.174;2023-01-20T02:47:36;6.70;;;3.92;;
50350;SDS011;36250;48.740;22.174;2023-01-20T02:52:44;5.50;;;4.40;;
50350;SDS011;36250;48.740;22.174;2023-01-20T02:55:22;6.97;;;5.22;;
50350;SDS011;36250;48.740;22.174;2023-01-20T02:57:56;5.63;;;4.18;;
50350;SDS011;36250;48.740;22.174;2023-01-20T03:03:00;4.22;;;3.78;;
50350;SDS011;36250;48.740;22.174;2023-01-20T03:05:30;7.10;;;3.88;;
50350;SDS011;36250;48.740;22.174;2023-01-20T03:08:00;4.60;;;4.20;;
50350;SDS011;36250;48.740;22.174;2023-01-20T03:10:30;5.63;;;4.80;;
50350;SDS011;36250;48.740;22.174;2023-01-20T03:15:58;6.53;;;4.82;;
50350;SDS011;36250;48.740;22.174;2023-01-20T03:18:27;6.28;;;4.60;;
50350;SDS011;36250;48.740;22.174;2023-01-20T03:20:54;6.18;;;4.80;;
50350;SDS011;36250;48.740;22.174;2023-01-20T03:23:21;6.15;;;5.57;;
50350;SDS011;36250;48.740;22.174;2023-01-20T03:25:46;7.25;;;6.00;;
50350;SDS011;36250;48.740;22.174;2023-01-20T03:28:14;8.73;;;7.78;;
50350;SDS011;36250;48.740;22.174;2023-01-20T03:30:39;8.63;;;7.72;;
50350;SDS011;36250;48.740;22.174;2023-01-20T03:33:05;13.20;;;8.27;;
50350;SDS011;36250;48.740;22.174;2023-01-20T03:35:32;12.65;;;10.60;;
50350;SDS011;36250;48.740;22.174;2023-01-20T03:37:58;11.02;;;8.85;;
50350;SDS011;36250;48.740;22.174;2023-01-20T03:40:23;13.32;;;8.60;;
50350;SDS011;36250;48.740;22.174;2023-01-20T03:42:53;9.73;;;7.97;;
50350;SDS011;36250;48.740;22.174;2023-01-20T03:48:07;8.63;;;7.38;;
50350;SDS011;36250;48.740;22.174;2023-01-20T03:50:35;9.70;;;6.47;;
50350;SDS011;36250;48.740;22.174;2023-01-20T03:53:32;10.10;;;6.20;;
50350;SDS011;36250;48.740;22.174;2023-01-20T03:56:19;6.45;;;5.57;;
50350;SDS011;36250;48.740;22.174;2023-01-20T03:59:06;6.75;;;5.07;;
50350;SDS011;36250;48.740;22.174;2023-01-20T04:01:35;5.53;;;5.03;;
50350;SDS011;36250;48.740;22.174;2023-01-20T04:04:04;4.88;;;4.38;;
50350;SDS011;36250;48.740;22.174;2023-01-20T04:06:34;5.00;;;4.20;;
50350;SDS011;36250;48.740;22.174;2023-01-20T04:09:03;7.85;;;4.70;;
50350;SDS011;36250;48.740;22.174;2023-01-20T04:11:32;7.70;;;5.68;;
50350;SDS011;36250;48.740;22.174;2023-01-20T04:13:57;8.23;;;6.68;;
50350;SDS011;36250;48.740;22.174;2023-01-20T04:16:23;7.75;;;5.78;;
50350;SDS011;36250;48.740;22.174;2023-01-20T04:18:50;7.03;;;5.63;;
50350;SDS011;36250;48.740;22.174;2023-01-20T04:22:18;6.45;;;5.65;;
50350;SDS011;36250;48.740;22.174;2023-01-20T04:24:42;7.53;;;5.63;;
50350;SDS011;36250;48.740;22.174;2023-01-20T04:27:17;7.35;;;6.45;;
50350;SDS011;36250;48.740;22.174;2023-01-20T04:29:42;7.22;;;6.05;;
50350;SDS011;36250;48.740;22.174;2023-01-20T04:32:08;6.18;;;5.25;;
50350;SDS011;36250;48.740;22.174;2023-01-20T04:34:35;6.20;;;4.90;;
50350;SDS011;36250;48.740;22.174;2023-01-20T04:37:01;7.18;;;4.35;;
50350;SDS011;36250;48.740;22.174;2023-01-20T04:39:26;5.30;;;4.80;;
50350;SDS011;36250;48.740;22.174;2023-01-20T04:41:51;5.07;;;4.57;;
50350;SDS011;36250;48.740;22.174;2023-01-20T04:44:17;6.90;;;5.15;;
50350;SDS011;36250;48.740;22.174;2023-01-20T04:46:42;5.20;;;4.70;;
50350;SDS011;36250;48.740;22.174;2023-01-20T04:49:08;5.20;;;3.65;;
50350;SDS011;36250;48.740;22.174;2023-01-20T04:51:35;7.88;;;5.00;;
50350;SDS011;36250;48.740;22.174;2023-01-20T04:54:00;4.25;;;3.67;;
50350;SDS011;36250;48.740;22.174;2023-01-20T04:56:26;9.57;;;6.20;;
50350;SDS011;36250;48.740;22.174;2023-01-20T04:58:51;6.43;;;5.13;;
50350;SDS011;36250;48.740;22.174;2023-01-20T05:01:17;5.13;;;4.50;;
50350;SDS011;36250;48.740;22.174;2023-01-20T05:03:42;4.40;;;4.00;;
50350;SDS011;36250;48.740;22.174;2023-01-20T05:06:10;4.05;;;3.65;;
50350;SDS011;36250;48.740;22.174;2023-01-20T05:08:35;4.57;;;3.50;;
50350;SDS011;36250;48.740;22.174;2023-01-20T05:11:01;5.07;;;3.80;;
50350;SDS011;36250;48.740;22.174;2023-01-20T05:13:26;4.65;;;3.95;;
50350;SDS011;36250;48.740;22.174;2023-01-20T05:15:52;6.38;;;4.30;;
50350;SDS011;36250;48.740;22.174;2023-01-20T05:18:17;5.82;;;4.75;;
50350;SDS011;36250;48.740;22.174;2023-01-20T05:20:46;5.75;;;4.60;;
50350;SDS011;36250;48.740;22.174;2023-01-20T05:23:13;5.35;;;4.53;;
50350;SDS011;36250;48.740;22.174;2023-01-20T05:25:38;5.30;;;4.78;;
50350;SDS011;36250;48.740;22.174;2023-01-20T05:28:04;5.85;;;4.90;;
50350;SDS011;36250;48.740;22.174;2023-01-20T05:30:29;5.63;;;4.30;;
50350;SDS011;36250;48.740;22.174;2023-01-20T05:32:54;5.25;;;4.75;;
50350;SDS011;36250;48.740;22.174;2023-01-20T05:35:20;6.45;;;5.00;;
50350;SDS011;36250;48.740;22.174;2023-01-20T05:37:45;5.53;;;4.40;;
50350;SDS011;36250;48.740;22.174;2023-01-20T05:40:11;7.93;;;5.80;;
50350;SDS011;36250;48.740;22.174;2023-01-20T05:42:37;6.75;;;5.25;;
50350;SDS011;36250;48.740;22.174;2023-01-20T05:45:02;9.93;;;7.25;;
50350;SDS011;36250;48.740;22.174;2023-01-20T05:47:28;11.35;;;8.23;;
50350;SDS011;36250;48.740;22.174;2023-01-20T05:49:53;12.27;;;9.38;;
50350;SDS011;36250;48.740;22.174;2023-01-20T05:52:18;14.35;;;12.30;;
50350;SDS011;36250;48.740;22.174;2023-01-20T05:54:44;15.93;;;11.23;;
50350;SDS011;36250;48.740;22.174;2023-01-20T05:57:09;16.70;;;11.20;;
50350;SDS011;36250;48.740;22.174;2023-01-20T05:59:34;15.23;;;12.18;;
50350;SDS011;36250;48.740;22.174;2023-01-20T06:02:00;14.48;;;10.95;;
50350;SDS011;36250;48.740;22.174;2023-01-20T06:04:25;13.40;;;10.25;;
50350;SDS011;36250;48.740;22.174;2023-01-20T06:06:50;13.98;;;10.13;;
50350;SDS011;36250;48.740;22.174;2023-01-20T06:09:16;12.15;;;9.40;;
50350;SDS011;36250;48.740;22.174;2023-01-20T06:11:41;10.55;;;8.55;;
50350;SDS011;36250;48.740;22.174;2023-01-20T06:14:06;27.35;;;17.15;;
50350;SDS011;36250;48.740;22.174;2023-01-20T06:16:32;12.20;;;9.10;;
50350;SDS011;36250;48.740;22.174;2023-01-20T06:18:57;16.50;;;12.80;;
50350;SDS011;36250;48.740;22.174;2023-01-20T06:21:23;21.58;;;13.38;;
50350;SDS011;36250;48.740;22.174;2023-01-20T06:23:48;15.95;;;12.60;;
50350;SDS011;36250;48.740;22.174;2023-01-20T06:26:14;22.02;;;16.75;;
50350;SDS011;36250;48.740;22.174;2023-01-20T06:28:39;16.02;;;13.00;;
50350;SDS011;36250;48.740;22.174;2023-01-20T06:31:06;14.75;;;11.57;;
50350;SDS011;36250;48.740;22.174;2023-01-20T06:33:33;15.02;;;12.05;;
50350;SDS011;36250;48.740;22.174;2023-01-20T06:35:59;10.43;;;9.07;;
50350;SDS011;36250;48.740;22.174;2023-01-20T06:38:25;17.98;;;13.93;;
50350;SDS011;36250;48.740;22.174;2023-01-20T06:40:57;18.98;;;14.48;;
50350;SDS011;36250;48.740;22.174;2023-01-20T06:43:23;21.27;;;14.40;;
50350;SDS011;36250;48.740;22.174;2023-01-20T06:45:48;13.70;;;10.48;;
50350;SDS011;36250;48.740;22.174;2023-01-20T06:48:14;15.23;;;10.93;;
50350;SDS011;36250;48.740;22.174;2023-01-20T06:50:39;13.27;;;8.88;;
50350;SDS011;36250;48.740;22.174;2023-01-20T06:53:05;17.85;;;12.23;;
50350;SDS011;36250;48.740;22.174;2023-01-20T06:55:30;20.85;;;15.55;;
50350;SDS011;36250;48.740;22.174;2023-01-20T06:57:55;18.30;;;13.02;;
50350;SDS011;36250;48.740;22.174;2023-01-20T07:00:21;13.48;;;10.60;;
50350;SDS011;36250;48.740;22.174;2023-01-20T07:02:47;13.93;;;10.98;;
50350;SDS011;36250;48.740;22.174;2023-01-20T07:05:13;18.63;;;12.65;;
50350;SDS011;36250;48.740;22.174;2023-01-20T07:07:38;10.68;;;8.32;;
50350;SDS011;36250;48.740;22.174;2023-01-20T07:10:04;10.20;;;8.43;;
50350;SDS011;36250;48.740;22.174;2023-01-20T07:12:30;7.75;;;6.20;;
50350;SDS011;36250;48.740;22.174;2023-01-20T07:14:55;10.77;;;7.97;;
50350;SDS011;36250;48.740;22.174;2023-01-20T07:17:20;10.00;;;6.60;;
50350;SDS011;36250;48.740;22.174;2023-01-20T07:19:45;12.95;;;7.72;;
50350;SDS011;36250;48.740;22.174;2023-01-20T07:22:11;12.45;;;9.48;;
50350;SDS011;36250;48.740;22.174;2023-01-20T07:24:36;11.75;;;8.02;;
50350;SDS011;36250;48.740;22.174;2023-01-20T07:27:01;29.83;;;22.92;;
50350;SDS011;36250;48.740;22.174;2023-01-20T07:29:27;16.67;;;13.20;;
50350;SDS011;36250;48.740;22.174;2023-01-20T07:31:52;46.60;;;22.75;;
50350;SDS011;36250;48.740;22.174;2023-01-20T07:34:17;19.50;;;12.63;;
50350;SDS011;36250;48.740;22.174;2023-01-20T07:36:43;22.10;;;14.30;;
50350;SDS011;36250;48.740;22.174;2023-01-20T07:39:09;24.80;;;13.70;;
50350;SDS011;36250;48.740;22.174;2023-01-20T07:41:35;23.98;;;12.80;;
50350;SDS011;36250;48.740;22.174;2023-01-20T07:44:01;37.97;;;19.33;;
50350;SDS011;36250;48.740;22.174;2023-01-20T07:46:26;11.02;;;8.40;;
50350;SDS011;36250;48.740;22.174;2023-01-20T07:48:52;10.48;;;7.22;;
50350;SDS011;36250;48.740;22.174;2023-01-20T07:51:17;8.57;;;7.13;;
50350;SDS011;36250;48.740;22.174;2023-01-20T07:53:44;11.93;;;8.77;;
50350;SDS011;36250;48.740;22.174;2023-01-20T07:56:14;11.38;;;7.97;;
50350;SDS011;36250;48.740;22.174;2023-01-20T07:58:41;7.53;;;6.70;;
50350;SDS011;36250;48.740;22.174;2023-01-20T08:01:28;10.95;;;8.48;;
50350;SDS011;36250;48.740;22.174;2023-01-20T08:03:55;9.10;;;7.30;;
50350;SDS011;36250;48.740;22.174;2023-01-20T08:06:22;6.82;;;6.13;;
50350;SDS011;36250;48.740;22.174;2023-01-20T08:08:49;7.80;;;6.95;;
50350;SDS011;36250;48.740;22.174;2023-01-20T08:11:15;14.27;;;10.05;;
50350;SDS011;36250;48.740;22.174;2023-01-20T08:13:42;10.38;;;8.52;;
50350;SDS011;36250;48.740;22.174;2023-01-20T08:16:08;11.10;;;8.10;;
50350;SDS011;36250;48.740;22.174;2023-01-20T08:18:36;10.30;;;7.18;;
50350;SDS011;36250;48.740;22.174;2023-01-20T08:21:02;5.38;;;4.63;;
50350;SDS011;36250;48.740;22.174;2023-01-20T08:23:30;4.47;;;3.78;;
50350;SDS011;36250;48.740;22.174;2023-01-20T08:25:57;7.20;;;5.00;;
50350;SDS011;36250;48.740;22.174;2023-01-20T08:28:24;6.80;;;5.20;;
50350;SDS011;36250;48.740;22.174;2023-01-20T08:30:50;5.30;;;4.30;;
50350;SDS011;36250;48.740;22.174;2023-01-20T08:33:15;6.60;;;5.00;;
50350;SDS011;36250;48.740;22.174;2023-01-20T08:35:41;4.47;;;4.07;;
50350;SDS011;36250;48.740;22.174;2023-01-20T08:38:06;3.67;;;3.35;;
50350;SDS011;36250;48.740;22.174;2023-01-20T08:40:33;3.92;;;3.17;;
50350;SDS011;36250;48.740;22.174;2023-01-20T08:42:58;4.45;;;3.50;;
50350;SDS011;36250;48.740;22.174;2023-01-20T08:45:24;5.47;;;4.40;;
50350;SDS011;36250;48.740;22.174;2023-01-20T08:47:49;4.20;;;3.38;;
50350;SDS011;36250;48.740;22.174;2023-01-20T08:50:14;5.25;;;3.17;;
50350;SDS011;36250;48.740;22.174;2023-01-20T08:52:40;4.63;;;4.03;;
50350;SDS011;36250;48.740;22.174;2023-01-20T08:55:07;5.05;;;3.17;;
50350;SDS011;36250;48.740;22.174;2023-01-20T08:57:33;6.57;;;4.03;;
50350;SDS011;36250;48.740;22.174;2023-01-20T08:59:58;5.50;;;4.07;;
50350;SDS011;36250;48.740;22.174;2023-01-20T09:02:24;5.10;;;3.88;;
50350;SDS011;36250;48.740;22.174;2023-01-20T09:04:50;4.80;;;3.45;;
50350;SDS011;36250;48.740;22.174;2023-01-20T09:07:16;5.55;;;4.28;;
50350;SDS011;36250;48.740;22.174;2023-01-20T09:09:43;5.65;;;4.25;;
50350;SDS011;36250;48.740;22.174;2023-01-20T09:12:09;4.28;;;3.38;;
50350;SDS011;36250;48.740;22.174;2023-01-20T09:14:34;21.02;;;11.15;;
50350;SDS011;36250;48.740;22.174;2023-01-20T09:17:00;5.47;;;3.40;;
50350;SDS011;36250;48.740;22.174;2023-01-20T09:19:26;4.18;;;3.17;;
50350;SDS011;36250;48.740;22.174;2023-01-20T09:21:52;5.28;;;3.15;;
50350;SDS011;36250;48.740;22.174;2023-01-20T09:24:17;5.35;;;4.22;;
50350;SDS011;36250;48.740;22.174;2023-01-20T09:26:43;3.50;;;3.13;;
50350;SDS011;36250;48.740;22.174;2023-01-20T09:29:13;4.97;;;4.22;;
50350;SDS011;36250;48.740;22.174;2023-01-20T09:31:50;3.72;;;3.20;;
50350;SDS011;36250;48.740;22.174;2023-01-20T09:34:18;4.53;;;3.70;;
50350;SDS011;36250;48.740;22.174;2023-01-20T09:36:55;5.18;;;3.92;;
50350;SDS011;36250;48.740;22.174;2023-01-20T09:39:22;4.93;;;3.30;;
50350;SDS011;36250;48.740;22.174;2023-01-20T09:42:23;5.68;;;3.50;;
50350;SDS011;36250;48.740;22.174;2023-01-20T09:45:29;4.22;;;3.38;;
50350;SDS011;36250;48.740;22.174;2023-01-20T09:51:11;5.20;;;3.30;;
50350;SDS011;36250;48.740;22.174;2023-01-20T09:54:02;7.35;;;5.30;;
50350;SDS011;36250;48.740;22.174;2023-01-20T09:56:35;3.17;;;2.83;;
50350;SDS011;36250;48.740;22.174;2023-01-20T09:59:09;3.50;;;3.15;;
50350;SDS011;36250;48.740;22.174;2023-01-20T10:01:47;4.90;;;3.85;;
50350;SDS011;36250;48.740;22.174;2023-01-20T10:04:24;3.40;;;3.08;;
50350;SDS011;36250;48.740;22.174;2023-01-20T10:07:02;5.53;;;3.72;;
50350;SDS011;36250;48.740;22.174;2023-01-20T10:09:40;4.32;;;3.33;;
50350;SDS011;36250;48.740;22.174;2023-01-20T10:12:21;3.73;;;3.23;;
50350;SDS011;36250;48.740;22.174;2023-01-20T10:28:21;7.50;;;5.07;;
50350;SDS011;36250;48.740;22.174;2023-01-20T10:30:52;6.55;;;5.30;;
50350;SDS011;36250;48.740;22.174;2023-01-20T10:33:37;5.70;;;3.33;;
50350;SDS011;36250;48.740;22.174;2023-01-20T10:36:09;5.78;;;4.40;;
50350;SDS011;36250;48.740;22.174;2023-01-20T10:38:53;4.35;;;3.38;;
50350;SDS011;36250;48.740;22.174;2023-01-20T10:41:27;5.05;;;3.40;;
50350;SDS011;36250;48.740;22.174;2023-01-20T10:44:02;4.10;;;3.45;;
50350;SDS011;36250;48.740;22.174;2023-01-20T10:46:40;4.57;;;3.58;;
50350;SDS011;36250;48.740;22.174;2023-01-20T10:49:29;4.28;;;3.88;;
50350;SDS011;36250;48.740;22.174;2023-01-20T10:57:42;5.35;;;4.00;;
50350;SDS011;36250;48.740;22.174;2023-01-20T11:00:30;5.20;;;3.67;;
50350;SDS011;36250;48.740;22.174;2023-01-20T11:02:58;5.20;;;4.00;;
50350;SDS011;36250;48.740;22.174;2023-01-20T11:05:29;5.38;;;4.65;;
50350;SDS011;36250;48.740;22.174;2023-01-20T11:07:57;7.75;;;4.85;;
50350;SDS011;36250;48.740;22.174;2023-01-20T11:10:27;9.07;;;6.03;;
50350;SDS011;36250;48.740;22.174;2023-01-20T11:12:57;7.05;;;5.18;;
50350;SDS011;36250;48.740;22.174;2023-01-20T11:15:37;6.05;;;4.97;;
50350;SDS011;36250;48.740;22.174;2023-01-20T11:20:42;5.70;;;4.15;;
50350;SDS011;36250;48.740;22.174;2023-01-20T11:23:21;6.95;;;4.95;;
50350;SDS011;36250;48.740;22.174;2023-01-20T11:31:16;6.10;;;4.10;;
50350;SDS011;36250;48.740;22.174;2023-01-20T11:34:25;4.15;;;3.45;;
50350;SDS011;36250;48.740;22.174;2023-01-20T11:36:50;13.05;;;9.50;;
50350;SDS011;36250;48.740;22.174;2023-01-20T11:45:08;9.02;;;6.78;;
50350;SDS011;36250;48.740;22.174;2023-01-20T11:47:49;5.15;;;3.95;;
50350;SDS011;36250;48.740;22.174;2023-01-20T11:50:37;6.05;;;4.70;;
50350;SDS011;36250;48.740;22.174;2023-01-20T11:53:18;9.20;;;7.32;;
50350;SDS011;36250;48.740;22.174;2023-01-20T11:55:50;6.20;;;5.07;;
50350;SDS011;36250;48.740;22.174;2023-01-20T11:58:33;4.80;;;4.20;;
50350;SDS011;36250;48.740;22.174;2023-01-20T12:01:26;4.25;;;3.13;;
50350;SDS011;36250;48.740;22.174;2023-01-20T12:06:31;6.72;;;4.18;;
50350;SDS011;36250;48.740;22.174;2023-01-20T12:09:02;8.02;;;5.75;;
50350;SDS011;36250;48.740;22.174;2023-01-20T12:11:36;8.68;;;6.53;;
50350;SDS011;36250;48.740;22.174;2023-01-20T12:14:14;6.53;;;5.35;;
50350;SDS011;36250;48.740;22.174;2023-01-20T12:19:32;7.28;;;5.43;;
50350;SDS011;36250;48.740;22.174;2023-01-20T12:22:10;10.85;;;7.05;;
50350;SDS011;36250;48.740;22.174;2023-01-20T12:27:33;7.70;;;5.75;;
50350;SDS011;36250;48.740;22.174;2023-01-20T12:30:02;4.28;;;3.67;;
50350;SDS011;36250;48.740;22.174;2023-01-20T12:32:32;5.97;;;4.53;;
50350;SDS011;36250;48.740;22.174;2023-01-20T12:34:58;6.22;;;3.60;;
50350;SDS011;36250;48.740;22.174;2023-01-20T12:56:26;6.75;;;2.85;;
50350;SDS011;36250;48.740;22.174;2023-01-20T13:04:49;2.53;;;2.33;;
50350;SDS011;36250;48.740;22.174;2023-01-20T13:10:26;5.40;;;3.15;;
50350;SDS011;36250;48.740;22.174;2023-01-20T13:13:07;4.93;;;2.60;;
50350;SDS011;36250;48.740;22.174;2023-01-20T13:16:16;4.00;;;2.25;;
50350;SDS011;36250;48.740;22.174;2023-01-20T13:18:55;8.73;;;3.28;;
50350;SDS011;36250;48.740;22.174;2023-01-20T13:21:27;3.22;;;2.25;;
50350;SDS011;36250;48.740;22.174;2023-01-20T13:23:54;2.53;;;2.05;;
50350;SDS011;36250;48.740;22.174;2023-01-20T13:26:19;3.67;;;2.65;;
50350;SDS011;36250;48.740;22.174;2023-01-20T13:28:49;3.35;;;2.20;;
50350;SDS011;36250;48.740;22.174;2023-01-20T13:39:37;4.20;;;2.90;;
50350;SDS011;36250;48.740;22.174;2023-01-20T13:50:20;3.03;;;2.55;;
50350;SDS011;36250;48.740;22.174;2023-01-20T13:55:29;4.57;;;2.95;;
50350;SDS011;36250;48.740;22.174;2023-01-20T13:58:13;6.70;;;3.80;;
50350;SDS011;36250;48.740;22.174;2023-01-20T14:00:47;2.70;;;2.15;;
50350;SDS011;36250;48.740;22.174;2023-01-20T14:03:27;3.15;;;2.42;;
50350;SDS011;36250;48.740;22.174;2023-01-20T14:06:02;2.85;;;2.45;;
50350;SDS011;36250;48.740;22.174;2023-01-20T14:08:35;4.15;;;2.50;;
50350;SDS011;36250;48.740;22.174;2023-01-20T14:13:38;3.15;;;2.47;;
50350;SDS011;36250;48.740;22.174;2023-01-20T14:16:04;2.33;;;2.13;;
50350;SDS011;36250;48.740;22.174;2023-01-20T14:18:30;3.28;;;2.97;;
50350;SDS011;36250;48.740;22.174;2023-01-20T14:26:06;3.55;;;2.63;;
50350;SDS011;36250;48.740;22.174;2023-01-20T14:28:33;2.90;;;2.50;;
50350;SDS011;36250;48.740;22.174;2023-01-20T14:31:31;2.97;;;2.50;;
50350;SDS011;36250;48.740;22.174;2023-01-20T14:37:16;2.72;;;2.50;;
50350;SDS011;36250;48.740;22.174;2023-01-20T14:39:54;2.92;;;2.60;;
50350;SDS011;36250;48.740;22.174;2023-01-20T14:42:23;2.42;;;2.17;;
50350;SDS011;36250;48.740;22.174;2023-01-20T14:44:50;2.72;;;2.08;;
50350;SDS011;36250;48.740;22.174;2023-01-20T14:47:17;3.05;;;2.63;;
50350;SDS011;36250;48.740;22.174;2023-01-20T14:49:45;5.22;;;2.30;;
50350;SDS011;36250;48.740;22.174;2023-01-20T14:52:17;3.17;;;2.33;;
50350;SDS011;36250;48.740;22.174;2023-01-20T14:54:45;2.55;;;2.33;;
50350;SDS011;36250;48.740;22.174;2023-01-20T14:57:17;3.17;;;2.35;;
50350;SDS011;36250;48.740;22.174;2023-01-20T15:02:42;2.25;;;2.00;;
50350;SDS011;36250;48.740;22.174;2023-01-20T15:05:27;3.55;;;1.90;;
50350;SDS011;36250;48.740;22.174;2023-01-20T15:08:04;3.05;;;2.10;;
50350;SDS011;36250;48.740;22.174;2023-01-20T15:10:30;2.78;;;2.15;;
50350;SDS011;36250;48.740;22.174;2023-01-20T15:12:55;3.88;;;2.83;;
50350;SDS011;36250;48.740;22.174;2023-01-20T15:15:28;3.53;;;2.58;;
50350;SDS011;36250;48.740;22.174;2023-01-20T15:18:13;3.97;;;2.58;;
50350;SDS011;36250;48.740;22.174;2023-01-20T15:20:44;2.55;;;1.90;;
50350;SDS011;36250;48.740;22.174;2023-01-20T15:23:20;2.00;;;1.77;;
50350;SDS011;36250;48.740;22.174;2023-01-20T15:25:48;2.83;;;2.05;;
50350;SDS011;36250;48.740;22.174;2023-01-20T15:30:50;2.85;;;2.00;;
50350;SDS011;36250;48.740;22.174;2023-01-20T15:33:16;2.70;;;2.42;;
50350;SDS011;36250;48.740;22.174;2023-01-20T15:35:42;2.10;;;1.67;;
50350;SDS011;36250;48.740;22.174;2023-01-20T15:38:10;1.88;;;1.60;;
50350;SDS011;36250;48.740;22.174;2023-01-20T15:40:36;2.35;;;2.15;;
50350;SDS011;36250;48.740;22.174;2023-01-20T15:43:05;2.53;;;1.77;;
50350;SDS011;36250;48.740;22.174;2023-01-20T15:45:38;2.72;;;2.00;;
50350;SDS011;36250;48.740;22.174;2023-01-20T15:48:06;2.28;;;2.08;;
50350;SDS011;36250;48.740;22.174;2023-01-20T15:50:37;2.85;;;2.45;;
50350;SDS011;36250;48.740;22.174;2023-01-20T15:53:03;1.85;;;1.75;;
50350;SDS011;36250;48.740;22.174;2023-01-20T15:55:30;2.53;;;2.17;;
50350;SDS011;36250;48.740;22.174;2023-01-20T15:57:55;2.35;;;1.60;;
50350;SDS011;36250;48.740;22.174;2023-01-20T16:00:21;1.90;;;1.67;;
50350;SDS011;36250;48.740;22.174;2023-01-20T16:02:47;3.38;;;1.90;;
50350;SDS011;36250;48.740;22.174;2023-01-20T16:05:13;1.80;;;1.70;;
50350;SDS011;36250;48.740;22.174;2023-01-20T16:07:38;2.05;;;1.77;;
50350;SDS011;36250;48.740;22.174;2023-01-20T16:10:04;3.22;;;1.50;;
50350;SDS011;36250;48.740;22.174;2023-01-20T16:12:31;4.97;;;2.15;;
50350;SDS011;36250;48.740;22.174;2023-01-20T16:14:56;1.45;;;1.35;;
50350;SDS011;36250;48.740;22.174;2023-01-20T16:17:22;2.60;;;2.00;;
50350;SDS011;36250;48.740;22.174;2023-01-20T16:19:50;2.35;;;1.83;;
50350;SDS011;36250;48.740;22.174;2023-01-20T16:22:15;2.00;;;1.80;;
50350;SDS011;36250;48.740;22.174;2023-01-20T16:24:41;2.58;;;2.10;;
50350;SDS011;36250;48.740;22.174;2023-01-20T16:27:17;1.52;;;1.38;;
50350;SDS011;36250;48.740;22.174;2023-01-20T16:29:44;2.22;;;1.65;;
50350;SDS011;36250;48.740;22.174;2023-01-20T16:32:10;2.63;;;2.33;;
50350;SDS011;36250;48.740;22.174;2023-01-20T16:34:35;7.00;;;3.30;;
50350;SDS011;36250;48.740;22.174;2023-01-20T16:37:01;5.90;;;2.97;;
50350;SDS011;36250;48.740;22.174;2023-01-20T16:39:26;8.18;;;3.63;;
50350;SDS011;36250;48.740;22.174;2023-01-20T16:41:51;5.15;;;3.67;;
50350;SDS011;36250;48.740;22.174;2023-01-20T16:44:16;2.58;;;2.10;;
50350;SDS011;36250;48.740;22.174;2023-01-20T16:46:42;12.88;;;6.95;;
50350;SDS011;36250;48.740;22.174;2023-01-20T16:49:10;4.90;;;3.40;;
50350;SDS011;36250;48.740;22.174;2023-01-20T16:51:36;3.50;;;2.28;;
50350;SDS011;36250;48.740;22.174;2023-01-20T16:54:01;4.10;;;2.45;;
50350;SDS011;36250;48.740;22.174;2023-01-20T16:56:27;2.13;;;1.63;;
50350;SDS011;36250;48.740;22.174;2023-01-20T16:58:54;3.00;;;2.50;;